createdAt,value
2023-05-16T00:01:22.188Z,16.17
2023-05-16T00:03:49.236Z,16.17
2023-05-16T00:06:18.083Z,16.16
2023-05-16T00:08:45.586Z,16.18
2023-05-16T00:11:12.610Z,16.15
2023-05-16T00:13:42.504Z,16.14
2023-05-16T00:16:10.042Z,16.17
2023-05-16T00:18:37.740Z,16.19
2023-05-16T00:21:05.832Z,16.14
2023-05-16T00:23:34.496Z,16.17
2023-05-16T00:26:01.597Z,16.14
2023-05-16T00:28:28.605Z,16.07
2023-05-16T00:30:55.476Z,16.07
2023-05-16T00:33:23.674Z,16.10
2023-05-16T00:35:53.762Z,16.12
2023-05-16T00:38:20.726Z,16.14
2023-05-16T00:40:49.093Z,16.15
2023-05-16T00:43:16.140Z,16.18
2023-05-16T00:45:43.051Z,16.18
2023-05-16T00:48:11.482Z,16.19
2023-05-16T00:50:38.690Z,16.21
2023-05-16T00:53:06.550Z,16.23
2023-05-16T00:55:33.871Z,16.21
2023-05-16T00:58:02.785Z,16.21
2023-05-16T01:00:30.652Z,16.19
2023-05-16T01:02:57.746Z,16.23
2023-05-16T01:05:25.367Z,16.25
2023-05-16T01:07:52.493Z,16.25
2023-05-16T01:10:19.695Z,16.26
2023-05-16T01:13:01.673Z,16.22
2023-05-16T01:15:36.235Z,16.21
2023-05-16T01:18:08.505Z,16.21
2023-05-16T01:20:44.931Z,16.17
2023-05-16T01:23:27.809Z,16.14
2023-05-16T01:26:20.008Z,16.12
2023-05-16T01:28:48.547Z,16.08
2023-05-16T01:31:16.267Z,16.10
2023-05-16T01:33:45.052Z,16.12
2023-05-16T01:36:24.334Z,16.11
2023-05-16T01:39:01.632Z,16.08
2023-05-16T01:41:40.212Z,16.08
2023-05-16T01:44:16.616Z,16.08
2023-05-16T01:46:46.077Z,16.05
2023-05-16T01:49:17.470Z,16.04
2023-05-16T01:51:50.763Z,16.04
2023-05-16T01:54:20.193Z,16.02
2023-05-16T01:56:52.639Z,15.97
2023-05-16T01:59:22.021Z,15.94
2023-05-16T02:01:48.991Z,15.92
2023-05-16T02:04:16.384Z,15.90
2023-05-16T02:06:44.401Z,15.87
2023-05-16T02:09:11.539Z,15.84
2023-05-16T02:11:40.926Z,15.82
2023-05-16T02:14:09.910Z,15.77
2023-05-16T02:16:37.414Z,15.72
2023-05-16T02:19:04.730Z,15.70
2023-05-16T02:21:31.907Z,15.66
2023-05-16T02:23:58.842Z,15.68
2023-05-16T02:26:27.417Z,15.69
2023-05-16T02:28:54.619Z,15.67
2023-05-16T02:31:30.291Z,15.67
2023-05-16T02:33:58.239Z,15.67
2023-05-16T02:36:25.788Z,15.66
2023-05-16T02:38:53.124Z,15.65
2023-05-16T02:41:23.304Z,15.63
2023-05-16T02:43:50.371Z,15.63
2023-05-16T02:46:21.974Z,15.62
2023-05-16T02:48:51.102Z,15.64
2023-05-16T02:51:18.299Z,15.61
2023-05-16T02:53:45.363Z,15.63
2023-05-16T02:56:12.372Z,15.62
2023-05-16T02:58:40.744Z,15.62
2023-05-16T03:01:07.802Z,15.65
2023-05-16T03:03:36.256Z,15.67
2023-05-16T03:06:04.873Z,15.70
2023-05-16T03:08:33.333Z,15.72
2023-05-16T03:11:00.393Z,15.70
2023-05-16T03:13:30.105Z,15.69
2023-05-16T03:15:59.480Z,15.71
2023-05-16T03:18:26.794Z,15.71
2023-05-16T03:20:54.123Z,15.74
2023-05-16T03:23:25.439Z,15.77
2023-05-16T03:25:52.408Z,15.79
2023-05-16T03:28:21.383Z,15.78
2023-05-16T03:30:48.426Z,15.83
2023-05-16T03:33:15.411Z,15.83
2023-05-16T03:35:43.646Z,15.84
2023-05-16T03:38:10.664Z,15.90
2023-05-16T03:40:40.612Z,15.95
2023-05-16T03:43:07.583Z,15.99
2023-05-16T03:45:34.617Z,16.02
2023-05-16T03:48:02.471Z,16.07
2023-05-16T03:50:29.489Z,16.11
2023-05-16T03:52:56.670Z,16.19
2023-05-16T03:55:23.769Z,16.26
2023-05-16T03:57:53.160Z,16.32
2023-05-16T04:00:20.148Z,16.36
2023-05-16T04:02:47.263Z,16.38
2023-05-16T04:05:14.598Z,16.42
2023-05-16T04:07:41.631Z,16.49
2023-05-16T04:10:10.310Z,16.52
2023-05-16T04:12:37.647Z,16.58
2023-05-16T04:15:07.362Z,16.64
2023-05-16T04:17:34.826Z,16.67
2023-05-16T04:20:01.807Z,16.71
2023-05-16T04:22:28.740Z,16.78
2023-05-16T04:24:55.786Z,16.87
2023-05-16T04:27:23.611Z,16.93
2023-05-16T04:29:50.751Z,16.99
2023-05-16T04:32:19.925Z,17.11
2023-05-16T04:34:48.493Z,17.20
2023-05-16T04:37:15.833Z,17.29
2023-05-16T04:39:42.880Z,17.40
2023-05-16T04:42:09.992Z,17.50
2023-05-16T04:44:37.644Z,17.63
2023-05-16T04:47:05.015Z,17.74
2023-05-16T04:49:33.295Z,17.87
2023-05-16T04:52:00.289Z,17.95
2023-05-16T04:54:27.326Z,18.03
2023-05-16T04:56:54.408Z,18.13
2023-05-16T04:59:21.858Z,18.24
2023-05-16T05:01:48.802Z,18.34
2023-05-16T05:04:17.921Z,18.43
2023-05-16T05:06:46.306Z,18.52
2023-05-16T05:09:13.365Z,18.55
2023-05-16T05:11:40.640Z,18.64
2023-05-16T05:14:07.590Z,18.80
2023-05-16T05:16:34.932Z,18.95
2023-05-16T05:19:02.904Z,19.11
2023-05-16T05:21:30.847Z,19.31
2023-05-16T05:23:59.292Z,19.53
2023-05-16T05:26:26.398Z,19.72
2023-05-16T05:29:04.418Z,19.88
2023-05-16T05:31:34.804Z,20.09
2023-05-16T05:34:02.510Z,20.33
2023-05-16T05:36:29.561Z,20.58
2023-05-16T05:38:56.890Z,20.82
2023-05-16T05:41:26.353Z,21.00
2023-05-16T05:43:53.387Z,21.15
2023-05-16T05:46:20.602Z,21.25
2023-05-16T05:48:47.945Z,21.36
2023-05-16T05:51:15.105Z,21.48
2023-05-16T05:53:42.703Z,21.60
2023-05-16T05:56:09.771Z,21.71
2023-05-16T05:58:39.461Z,21.73
2023-05-16T06:01:06.650Z,21.78
2023-05-16T06:03:33.983Z,21.87
2023-05-16T06:06:01.091Z,21.98
2023-05-16T06:08:28.127Z,22.11
2023-05-16T06:10:55.059Z,22.26
2023-05-16T06:13:22.089Z,22.38
2023-05-16T06:15:52.058Z,22.48
2023-05-16T06:18:19.101Z,22.58
2023-05-16T06:20:46.136Z,22.65
2023-05-16T06:23:13.375Z,22.71
2023-05-16T06:25:40.496Z,22.77
2023-05-16T06:28:07.464Z,22.93
2023-05-16T06:30:34.946Z,23.10
2023-05-16T06:33:03.552Z,23.25
2023-05-16T06:35:30.826Z,23.55
2023-05-16T06:37:57.776Z,23.88
2023-05-16T06:40:24.906Z,24.15
2023-05-16T06:42:54.937Z,24.29
2023-05-16T06:45:22.703Z,24.26
2023-05-16T06:47:49.762Z,24.25
2023-05-16T06:50:18.507Z,24.24
2023-05-16T06:52:45.610Z,24.27
2023-05-16T06:55:12.942Z,24.36
2023-05-16T06:57:39.967Z,24.49
2023-05-16T07:00:08.542Z,24.71
2023-05-16T07:02:35.860Z,25.04
2023-05-16T07:05:03.012Z,25.24
2023-05-16T07:07:31.722Z,25.45
2023-05-16T07:09:58.811Z,25.76
2023-05-16T07:12:26.769Z,26.04
2023-05-16T07:14:54.059Z,26.31
2023-05-16T07:17:23.831Z,26.49
2023-05-16T07:19:51.016Z,26.85
2023-05-16T07:22:18.040Z,27.21
2023-05-16T07:24:46.604Z,27.29
2023-05-16T07:27:13.647Z,27.04
2023-05-16T07:29:41.609Z,26.74
2023-05-16T07:32:08.806Z,26.63
2023-05-16T07:34:35.947Z,26.46
2023-05-16T07:37:03.475Z,26.34
2023-05-16T07:39:30.523Z,26.03
2023-05-16T07:41:59.275Z,25.63
2023-05-16T07:44:26.292Z,25.31
2023-05-16T07:46:53.264Z,25.13
2023-05-16T07:49:21.330Z,24.93
2023-05-16T07:51:48.529Z,24.64
2023-05-16T07:54:15.654Z,24.40
2023-05-16T07:56:42.942Z,24.32
2023-05-16T07:59:11.767Z,24.56
2023-05-16T08:01:38.904Z,25.21
2023-05-16T08:04:06.141Z,25.94
2023-05-16T08:06:34.564Z,26.43
2023-05-16T08:09:01.922Z,26.89
2023-05-16T08:11:29.182Z,27.08
2023-05-16T08:13:56.311Z,27.21
2023-05-16T08:16:24.737Z,27.32
2023-05-16T08:18:52.062Z,27.55
2023-05-16T08:21:19.334Z,27.48
2023-05-16T08:23:46.327Z,27.36
2023-05-16T08:26:13.800Z,27.61
2023-05-16T08:28:40.844Z,28.08
2023-05-16T08:31:07.904Z,28.40
2023-05-16T08:33:36.370Z,28.53
2023-05-16T08:36:04.167Z,28.62
2023-05-16T08:38:31.152Z,28.46
2023-05-16T08:40:58.261Z,28.21
2023-05-16T08:43:25.399Z,28.17
2023-05-16T08:45:52.488Z,28.26
2023-05-16T08:48:23.581Z,28.34
2023-05-16T08:50:52.138Z,28.25
2023-05-16T08:53:23.017Z,28.30
2023-05-16T08:55:51.684Z,28.54
2023-05-16T08:58:19.788Z,28.63
2023-05-16T09:00:49.627Z,28.90
2023-05-16T09:03:17.371Z,29.08
2023-05-16T09:05:44.471Z,29.05
2023-05-16T09:08:12.996Z,29.11
2023-05-16T09:10:39.989Z,29.37
2023-05-16T09:13:07.420Z,29.31
2023-05-16T09:15:34.675Z,29.66
2023-05-16T09:18:03.106Z,30.30
2023-05-16T09:20:30.238Z,30.32
2023-05-16T09:23:01.026Z,30.13
2023-05-16T09:25:32.285Z,30.16
2023-05-16T09:28:01.732Z,30.18
2023-05-16T09:30:31.653Z,30.47
2023-05-16T09:33:00.481Z,30.55
2023-05-16T09:35:43.246Z,30.35
2023-05-16T09:38:15.568Z,30.28
2023-05-16T09:40:45.266Z,30.39
2023-05-16T09:43:16.643Z,30.47
2023-05-16T09:45:47.672Z,30.75
2023-05-16T09:48:16.949Z,30.90
2023-05-16T09:50:49.368Z,31.01
2023-05-16T09:53:16.717Z,30.63
2023-05-16T09:55:46.218Z,30.25
2023-05-16T09:58:17.543Z,30.01
2023-05-16T10:00:45.817Z,29.87
2023-05-16T10:03:13.767Z,30.00
2023-05-16T10:05:41.652Z,30.10
2023-05-16T10:08:09.617Z,29.96
2023-05-16T10:10:38.567Z,29.63
2023-05-16T10:13:09.885Z,29.67
2023-05-16T10:15:40.133Z,29.46
2023-05-16T10:18:12.098Z,29.33
2023-05-16T10:20:42.432Z,29.27
2023-05-16T10:23:16.817Z,29.39
2023-05-16T10:25:46.090Z,29.68
2023-05-16T10:28:16.444Z,29.78
2023-05-16T10:30:44.944Z,30.02
2023-05-16T10:33:13.368Z,30.21
2023-05-16T10:35:41.535Z,30.33
2023-05-16T10:38:12.135Z,30.17
2023-05-16T10:40:40.027Z,30.09
2023-05-16T10:43:11.151Z,30.30
2023-05-16T10:45:44.362Z,30.49
2023-05-16T10:48:13.014Z,30.45
2023-05-16T10:50:42.966Z,30.17
2023-05-16T10:53:18.444Z,30.12
2023-05-16T10:55:49.641Z,29.59
2023-05-16T10:58:23.974Z,29.34
2023-05-16T11:01:19.160Z,29.10
2023-05-16T11:04:16.365Z,29.02
2023-05-16T11:06:51.414Z,28.99
2023-05-16T11:09:22.387Z,28.90
2023-05-16T11:12:10.926Z,28.73
2023-05-16T11:14:44.207Z,28.47
2023-05-16T11:17:17.057Z,28.20
2023-05-16T11:19:45.852Z,28.04
2023-05-16T11:22:24.493Z,28.04
2023-05-16T11:24:57.615Z,27.87
2023-05-16T11:27:29.641Z,27.76
2023-05-16T11:30:03.286Z,27.77
2023-05-16T11:32:35.326Z,27.90
2023-05-16T11:35:04.002Z,28.10
2023-05-16T11:37:31.441Z,28.32
2023-05-16T11:39:59.768Z,28.58
2023-05-16T11:42:30.080Z,28.68
2023-05-16T11:45:05.291Z,28.69
2023-05-16T11:47:34.049Z,28.70
2023-05-16T11:50:01.204Z,28.82
2023-05-16T11:52:28.486Z,28.84
2023-05-16T11:54:57.459Z,28.80
2023-05-16T11:57:24.954Z,28.69
2023-05-16T11:59:53.344Z,28.60
2023-05-16T12:02:21.129Z,28.34
2023-05-16T12:04:50.788Z,28.13
2023-05-16T12:07:18.022Z,27.98
2023-05-16T12:09:53.563Z,27.78
2023-05-16T12:12:21.428Z,27.62
2023-05-16T12:14:51.475Z,27.58
2023-05-16T12:17:20.376Z,27.56
2023-05-16T12:19:47.531Z,27.64
2023-05-16T12:22:21.007Z,27.61
2023-05-16T12:24:48.096Z,27.59
2023-05-16T12:27:22.050Z,27.56
2023-05-16T12:29:50.152Z,27.50
2023-05-16T12:32:21.249Z,27.54
2023-05-16T12:34:51.161Z,27.54
2023-05-16T12:37:21.628Z,27.47
2023-05-16T12:39:49.081Z,27.43
2023-05-16T12:42:16.489Z,27.40
2023-05-16T12:44:46.795Z,27.31
2023-05-16T12:47:16.742Z,27.28
2023-05-16T12:49:47.090Z,27.30
2023-05-16T12:52:20.907Z,27.42
2023-05-16T12:54:51.036Z,27.43
2023-05-16T12:57:20.113Z,27.36
2023-05-16T12:59:47.340Z,27.32
2023-05-16T13:02:14.317Z,27.33
2023-05-16T13:04:41.600Z,27.30
2023-05-16T13:07:08.673Z,27.26
2023-05-16T13:09:37.383Z,27.29
2023-05-16T13:12:05.014Z,27.26
2023-05-16T13:14:32.367Z,27.34
2023-05-16T13:16:59.443Z,27.42
2023-05-16T13:19:26.521Z,27.48
2023-05-16T13:21:53.728Z,27.53
2023-05-16T13:24:20.830Z,27.60
2023-05-16T13:26:51.208Z,27.65
2023-05-16T13:29:18.382Z,27.71
2023-05-16T13:31:45.617Z,27.78
2023-05-16T13:34:12.662Z,27.74
2023-05-16T13:36:53.066Z,27.74
2023-05-16T13:39:21.967Z,27.72
2023-05-16T13:41:50.740Z,27.68
2023-05-16T13:44:18.407Z,27.69
2023-05-16T13:46:45.996Z,27.67
2023-05-16T13:49:13.038Z,27.61
2023-05-16T13:51:40.092Z,27.59
2023-05-16T13:54:07.381Z,27.54
2023-05-16T13:56:34.477Z,27.44
2023-05-16T13:59:06.874Z,27.35
2023-05-16T14:01:34.973Z,27.31
2023-05-16T14:04:02.346Z,27.30
2023-05-16T14:06:29.444Z,27.29
2023-05-16T14:08:56.576Z,27.23
2023-05-16T14:11:29.209Z,27.16
2023-05-16T14:13:57.393Z,27.13
2023-05-16T14:16:26.417Z,27.11
2023-05-16T14:18:54.081Z,27.09
2023-05-16T14:21:21.196Z,27.07
2023-05-16T14:23:48.726Z,27.01
2023-05-16T14:26:16.525Z,27.01
2023-05-16T14:28:43.634Z,26.97
2023-05-16T14:31:10.670Z,26.94
2023-05-16T14:33:41.081Z,26.92
2023-05-16T14:36:08.733Z,26.85
2023-05-16T14:38:39.242Z,26.73
2023-05-16T14:41:06.558Z,26.65
2023-05-16T14:43:33.615Z,26.58
2023-05-16T14:46:00.919Z,26.55
2023-05-16T14:48:28.069Z,26.50
2023-05-16T14:50:56.822Z,26.37
2023-05-16T14:53:23.824Z,26.38
2023-05-16T14:55:50.830Z,26.38
2023-05-16T14:58:17.924Z,26.33
2023-05-16T15:00:44.925Z,26.30
2023-05-16T15:03:13.189Z,26.16
2023-05-16T15:05:42.114Z,26.09
2023-05-16T15:08:10.509Z,25.96
2023-05-16T15:10:38.547Z,25.87
2023-05-16T15:13:05.617Z,25.72
2023-05-16T15:15:33.301Z,25.64
2023-05-16T15:18:00.496Z,25.56
2023-05-16T15:20:28.298Z,25.38
2023-05-16T15:22:55.652Z,25.32
2023-05-16T15:25:24.046Z,25.22
2023-05-16T15:27:51.712Z,25.18
2023-05-16T15:30:18.877Z,25.16
2023-05-16T15:32:46.017Z,25.06
2023-05-16T15:35:13.071Z,24.97
2023-05-16T15:37:40.501Z,24.88
2023-05-16T15:40:09.430Z,24.82
2023-05-16T15:42:38.252Z,24.74
2023-05-16T15:45:07.249Z,24.69
2023-05-16T15:47:34.255Z,24.64
2023-05-16T15:50:02.163Z,24.54
2023-05-16T15:52:29.294Z,24.52
2023-05-16T15:54:56.301Z,24.50
2023-05-16T15:57:23.394Z,24.40
2023-05-16T15:59:51.994Z,24.36
2023-05-16T16:02:19.079Z,24.33
2023-05-16T16:04:46.310Z,24.32
2023-05-16T16:07:13.655Z,24.31
2023-05-16T16:09:40.670Z,24.25
2023-05-16T16:12:08.462Z,24.24
2023-05-16T16:14:35.615Z,24.22
2023-05-16T16:17:10.075Z,24.18
2023-05-16T16:19:37.241Z,24.16
2023-05-16T16:22:04.776Z,24.10
2023-05-16T16:24:31.767Z,24.06
2023-05-16T16:26:58.760Z,24.04
2023-05-16T16:29:26.426Z,24.02
2023-05-16T16:31:53.601Z,23.98
2023-05-16T16:34:23.352Z,23.92
2023-05-16T16:36:50.744Z,23.92
2023-05-16T16:39:17.817Z,23.93
2023-05-16T16:41:45.097Z,23.91
2023-05-16T16:44:13.454Z,23.86
2023-05-16T16:46:41.071Z,23.78
2023-05-16T16:49:08.207Z,23.75
2023-05-16T16:51:36.755Z,23.74
2023-05-16T16:54:04.118Z,23.70
2023-05-16T16:56:31.591Z,23.60
2023-05-16T16:58:58.621Z,23.54
2023-05-16T17:01:29.551Z,23.52
2023-05-16T17:03:57.059Z,23.37
2023-05-16T17:06:24.354Z,23.34
2023-05-16T17:08:52.785Z,23.29
2023-05-16T17:11:23.345Z,23.23
2023-05-16T17:13:50.543Z,23.12
2023-05-16T17:16:17.639Z,23.07
2023-05-16T17:18:46.819Z,22.99
2023-05-16T17:21:13.894Z,22.96
2023-05-16T17:23:43.855Z,22.91
2023-05-16T17:26:13.861Z,22.82
2023-05-16T17:28:41.101Z,22.79
2023-05-16T17:31:08.060Z,22.74
2023-05-16T17:33:35.314Z,22.61
2023-05-16T17:36:02.337Z,22.54
2023-05-16T17:38:29.837Z,22.48
2023-05-16T17:40:59.594Z,22.37
2023-05-16T17:43:29.798Z,22.36
2023-05-16T17:45:56.889Z,22.32
2023-05-16T17:48:24.006Z,22.30
2023-05-16T17:50:51.698Z,22.20
2023-05-16T17:53:18.747Z,22.12
2023-05-16T17:55:46.414Z,22.12
2023-05-16T17:58:13.717Z,22.08
2023-05-16T18:00:42.224Z,22.06
2023-05-16T18:03:09.512Z,22.06
2023-05-16T18:05:36.826Z,22.04
2023-05-16T18:08:05.108Z,21.97
2023-05-16T18:10:47.424Z,21.99
2023-05-16T18:13:18.176Z,21.99
2023-05-16T18:15:46.828Z,21.95
2023-05-16T18:18:13.939Z,21.94
2023-05-16T18:20:41.217Z,21.88
2023-05-16T18:23:09.107Z,21.82
2023-05-16T18:25:36.311Z,21.82
2023-05-16T18:28:04.227Z,21.76
2023-05-16T18:30:31.232Z,21.80
2023-05-16T18:33:00.117Z,21.72
2023-05-16T18:35:28.684Z,21.65
2023-05-16T18:37:58.684Z,21.64
2023-05-16T18:40:26.071Z,21.66
2023-05-16T18:42:53.147Z,21.77
2023-05-16T18:45:20.970Z,21.79
2023-05-16T18:47:48.317Z,21.89
2023-05-16T18:50:17.200Z,21.91
2023-05-16T18:52:44.219Z,21.89
2023-05-16T18:55:11.413Z,21.85
2023-05-16T18:57:38.563Z,21.83
2023-05-16T19:00:07.805Z,21.79
2023-05-16T19:05:08.841Z,21.63
2023-05-16T19:07:37.364Z,21.60
2023-05-16T19:10:04.948Z,21.59
2023-05-16T19:12:32.019Z,21.55
2023-05-16T19:14:59.296Z,21.50
2023-05-16T19:17:26.829Z,21.49
2023-05-16T19:19:54.251Z,21.50
2023-05-16T19:22:21.387Z,21.47
2023-05-16T19:24:49.763Z,21.41
2023-05-16T19:27:16.886Z,21.39
2023-05-16T19:29:43.959Z,21.33
2023-05-16T19:32:11.619Z,21.28
2023-05-16T19:34:38.904Z,21.18
2023-05-16T19:37:06.072Z,21.13
2023-05-16T19:39:33.110Z,21.07
2023-05-16T19:42:06.954Z,21.02
2023-05-16T19:44:35.017Z,20.97
2023-05-16T19:47:02.064Z,20.96
2023-05-16T19:49:31.667Z,20.95
2023-05-16T19:51:59.021Z,20.92
2023-05-16T19:54:26.374Z,20.92
2023-05-16T19:56:53.430Z,20.91
2023-05-16T19:59:22.566Z,20.91
2023-05-16T20:01:49.904Z,20.95
2023-05-16T20:04:16.978Z,20.91
2023-05-16T20:06:44.155Z,20.94
2023-05-16T20:09:11.728Z,20.87
2023-05-16T20:11:38.877Z,20.81
2023-05-16T20:14:06.330Z,20.81
2023-05-16T20:16:34.704Z,20.78
2023-05-16T20:19:04.255Z,20.73
2023-05-16T20:21:31.588Z,20.67
2023-05-16T20:23:58.837Z,20.64
2023-05-16T20:26:25.905Z,20.62
2023-05-16T20:28:53.061Z,20.59
2023-05-16T20:31:20.033Z,20.58
2023-05-16T20:33:48.558Z,20.56
2023-05-16T20:36:15.789Z,20.56
2023-05-16T20:38:42.804Z,20.49
2023-05-16T20:41:09.848Z,20.53
2023-05-16T20:43:36.919Z,20.48
2023-05-16T20:46:04.225Z,20.42
2023-05-16T20:48:31.641Z,20.38
2023-05-16T20:51:01.426Z,20.34
2023-05-16T20:53:28.495Z,20.28
2023-05-16T20:55:55.775Z,20.25
2023-05-16T20:58:22.852Z,20.22
2023-05-16T21:00:49.839Z,20.19
2023-05-16T21:03:19.746Z,20.07
2023-05-16T21:05:46.949Z,20.01
2023-05-16T21:08:15.898Z,19.90
2023-05-16T21:10:42.873Z,19.71
2023-05-16T21:13:09.958Z,19.66
2023-05-16T21:15:38.541Z,19.67
2023-05-16T21:18:05.730Z,19.58
2023-05-16T21:20:32.813Z,19.50
2023-05-16T21:23:00.019Z,19.48
2023-05-16T21:25:28.918Z,19.49
2023-05-16T21:27:56.413Z,19.47
2023-05-16T21:30:23.437Z,19.39
2023-05-16T21:32:51.879Z,19.40
2023-05-16T21:35:18.942Z,19.45
2023-05-16T21:37:46.183Z,19.37
2023-05-16T21:40:19.160Z,19.30
2023-05-16T21:42:47.687Z,19.18
2023-05-16T21:45:16.602Z,19.09
2023-05-16T21:47:44.090Z,19.02
2023-05-16T21:50:11.600Z,19.03
2023-05-16T21:52:38.878Z,19.10
2023-05-16T21:55:07.241Z,19.20
2023-05-16T21:57:34.272Z,19.26
2023-05-16T22:00:09.236Z,19.26
2023-05-16T22:02:36.649Z,19.22
2023-05-16T22:05:04.874Z,19.15
2023-05-16T22:07:32.321Z,19.11
2023-05-16T22:09:59.942Z,19.17
2023-05-16T22:12:27.586Z,19.16
2023-05-16T22:14:55.291Z,19.13
2023-05-16T22:17:23.838Z,19.12
2023-05-16T22:19:51.160Z,19.13
2023-05-16T22:22:18.292Z,19.16
2023-05-16T22:24:45.376Z,19.18
2023-05-16T22:27:12.400Z,19.22
2023-05-16T22:29:39.390Z,19.23
2023-05-16T22:32:07.646Z,19.22
2023-05-16T22:34:39.721Z,19.25
2023-05-16T22:37:07.523Z,19.19
2023-05-16T22:39:34.516Z,19.20
2023-05-16T22:42:01.513Z,19.21
2023-05-16T22:44:29.089Z,19.26
2023-05-16T22:46:56.101Z,19.32
2023-05-16T22:49:23.292Z,19.27
2023-05-16T22:51:51.766Z,19.23
2023-05-16T22:54:18.853Z,19.22
2023-05-16T22:56:45.856Z,19.20
2023-05-16T22:59:12.942Z,19.18
2023-05-16T23:01:42.894Z,19.16
2023-05-16T23:04:10.474Z,19.11
2023-05-16T23:06:37.544Z,19.05
2023-05-16T23:09:05.905Z,19.05
2023-05-16T23:11:33.248Z,19.07
2023-05-16T23:14:00.451Z,19.08
2023-05-16T23:16:27.559Z,19.07
2023-05-16T23:18:54.663Z,19.06
2023-05-16T23:21:21.881Z,18.99
2023-05-16T23:23:48.883Z,18.94
2023-05-16T23:26:17.389Z,18.92
2023-05-16T23:28:44.462Z,18.90
2023-05-16T23:31:11.454Z,18.88
2023-05-16T23:33:38.528Z,18.77
2023-05-16T23:36:06.564Z,18.67
2023-05-16T23:38:33.591Z,18.61
2023-05-16T23:41:00.612Z,18.57
2023-05-16T23:43:28.983Z,18.52
2023-05-16T23:45:55.944Z,18.49
2023-05-16T23:48:23.029Z,18.41
2023-05-16T23:50:50.029Z,18.32
2023-05-16T23:53:17.169Z,18.19
2023-05-16T23:55:44.178Z,18.14
2023-05-16T23:58:11.513Z,18.17
